Andersonburg, Pennsylvania
Current Conditions -  °F | °C
As of 10:56 PM on Wednesday 26 Nov 2014 (Local Time) from KCXY Reporting Station
Overcast Overcast  
Wind Chill: 28°   Ceiling: 1900
Heat Index: 35°   Visibility: 10mi
Dew Point: 29°   Wind: 9mph
Humidity: 78%   Direction: 310°NW
Pressure: 29.97"   Gusts: NA
Location:  40.3674°N, 77.4381°W
Report Text: KCXY 270356Z AUTO 31008KT 10SM OVC019 02/M02 A2997 RMK AO2 SLP153 T00171017
Loading
Personal Weather Stations






























Interactive Weather Map New forecast layout! Learn more

10-Day Weather Forecast

Advertisements
Track Severe Weather on mobile